Time;durP1;ratioP1;P1;durP2;ratioP2;P2;SDS_P1;SDS_P2;PMS_P1;PMS_P2;Temp;Humidity;BMP_temperature;BMP_pressure;BME280_temperature;BME280_humidity;BME280_pressure;Samples;Min_cycle;Max_cycle;Signal;HPM_P1;HPM_P2
2023/02/27 00:00:23;;;;;;;0.40;0.40;;;16.00;72.50;;;;;;4983098;28;20377;-70
2023/02/27 00:02:49;;;;;;;0.63;0.25;;;16.00;72.60;;;;;;4994869;28;20481;-70
2023/02/27 00:05:15;;;;;;;0.38;0.28;;;16.00;72.60;;;;;;4977515;28;20035;-69
2023/02/27 00:07:41;;;;;;;3.90;0.77;;;16.00;72.60;;;;;;4993810;28;20022;-70
2023/02/27 00:10:07;;;;;;;2.13;0.20;;;16.00;72.80;;;;;;4993119;28;20026;-70
2023/02/27 00:12:36;;;;;;;1.80;0.52;;;16.00;72.70;;;;;;4992049;28;20023;-70
2023/02/27 00:15:13;;;;;;;2.75;0.47;;;16.00;72.80;;;;;;4973413;28;20054;-70
2023/02/27 00:17:39;;;;;;;8.23;0.40;;;16.00;74.00;;;;;;4975393;28;20023;-70
2023/02/27 00:20:05;;;;;;;1.42;0.35;;;16.00;72.90;;;;;;4957740;28;20031;-70
2023/02/27 00:22:31;;;;;;;5.10;0.43;;;16.00;73.10;;;;;;4957697;28;20050;-70
2023/02/27 00:24:57;;;;;;;1.88;0.22;;;15.90;72.80;;;;;;4957588;28;20027;-70
2023/02/27 00:27:22;;;;;;;1.80;0.30;;;16.00;73.00;;;;;;4975160;28;20023;-70
2023/02/27 00:29:48;;;;;;;1.55;0.30;;;15.90;73.00;;;;;;4975233;28;20035;-70
2023/02/27 00:32:14;;;;;;;1.20;0.40;;;15.90;73.10;;;;;;4974871;28;20038;-70
2023/02/27 00:34:40;;;;;;;0.52;0.30;;;15.90;73.20;;;;;;4973670;28;20566;-70
2023/02/27 00:37:06;;;;;;;0.65;0.30;;;15.90;73.10;;;;;;4974904;28;20056;-70
2023/02/27 00:39:32;;;;;;;0.98;0.30;;;15.90;73.10;;;;;;4974711;28;20058;-70
2023/02/27 00:41:57;;;;;;;0.73;0.40;;;15.90;73.20;;;;;;4973891;28;20090;-70
2023/02/27 00:44:23;;;;;;;0.85;0.32;;;15.90;73.20;;;;;;4974902;28;20490;-70
2023/02/27 00:46:48;;;;;;;1.10;0.40;;;15.90;73.30;;;;;;4974598;28;20390;-70
2023/02/27 00:49:14;;;;;;;2.15;0.40;;;15.90;73.30;;;;;;4973306;28;20461;-70
2023/02/27 00:51:40;;;;;;;1.45;0.30;;;15.90;73.40;;;;;;4974814;28;20035;-70
2023/02/27 00:54:05;;;;;;;0.93;0.30;;;15.90;73.40;;;;;;4974467;28;20117;-70
2023/02/27 00:56:31;;;;;;;1.15;0.40;;;15.90;73.40;;;;;;4957483;28;20112;-70
2023/02/27 00:58:56;;;;;;;0.80;0.20;;;15.80;73.30;;;;;;4973330;28;20081;-70
2023/02/27 01:01:22;;;;;;;0.40;0.30;;;15.90;73.40;;;;;;4989673;28;20026;-70
2023/02/27 01:03:48;;;;;;;0.43;0.32;;;15.90;73.50;;;;;;4994187;28;20030;-70
2023/02/27 01:06:13;;;;;;;0.93;0.40;;;15.80;73.50;;;;;;4993804;28;20105;-70
2023/02/27 01:08:39;;;;;;;2.83;0.30;;;15.90;73.70;;;;;;4992472;28;20122;-70
2023/02/27 01:11:05;;;;;;;0.43;0.28;;;15.80;73.70;;;;;;4993654;28;20022;-70
2023/02/27 01:13:30;;;;;;;1.48;0.47;;;15.80;73.70;;;;;;4984740;28;20122;-70
2023/02/27 01:15:56;;;;;;;1.00;0.35;;;15.80;73.70;;;;;;4973165;28;20062;-70
2023/02/27 01:18:21;;;;;;;1.38;0.40;;;15.80;73.70;;;;;;4974126;28;20043;-70
2023/02/27 01:20:52;;;;;;;1.45;0.22;;;15.80;73.80;;;;;;4972984;28;20055;-70
2023/02/27 01:23:17;;;;;;;1.05;0.30;;;15.80;73.70;;;;;;4972871;28;20027;-70
2023/02/27 01:25:43;;;;;;;0.90;0.60;;;15.80;73.80;;;;;;4974325;28;20101;-69
2023/02/27 01:28:08;;;;;;;0.50;0.30;;;15.80;73.90;;;;;;4972787;28;20031;-69
2023/02/27 01:30:34;;;;;;;1.33;0.30;;;15.80;74.00;;;;;;4974184;28;20034;-70
2023/02/27 01:33:00;;;;;;;0.77;0.40;;;15.80;74.00;;;;;;4974406;28;20038;-69
2023/02/27 01:35:25;;;;;;;0.40;0.20;;;15.70;73.80;;;;;;4974000;28;20031;-70
2023/02/27 01:37:51;;;;;;;0.95;0.30;;;15.70;73.90;;;;;;4973932;28;20027;-70
2023/02/27 01:40:17;;;;;;;1.20;0.35;;;15.70;74.00;;;;;;4974106;28;20498;-70
2023/02/27 01:42:43;;;;;;;2.50;0.60;;;15.70;74.00;;;;;;4973042;28;20094;-70
2023/02/27 01:45:11;;;;;;;2.45;0.22;;;15.70;74.10;;;;;;4986029;28;20024;-70
2023/02/27 01:47:42;;;;;;;0.85;0.35;;;15.70;74.10;;;;;;4993494;28;20029;-70
2023/02/27 01:50:08;;;;;;;1.63;0.22;;;15.70;73.90;;;;;;4975991;28;20485;-70
2023/02/27 01:52:35;;;;;;;0.45;0.20;;;15.70;74.00;;;;;;4975923;28;20034;-70
2023/02/27 01:55:01;;;;;;;0.65;0.32;;;15.70;74.00;;;;;;4976173;28;20030;-70
2023/02/27 01:57:26;;;;;;;1.65;0.30;;;15.70;74.00;;;;;;4976117;28;20022;-70
2023/02/27 01:59:52;;;;;;;0.85;0.40;;;15.70;74.00;;;;;;4991903;28;20054;-69
2023/02/27 02:02:25;;;;;;;0.95;0.30;;;15.70;74.00;;;;;;4991924;28;20033;-70
2023/02/27 02:04:50;;;;;;;0.65;0.40;;;15.70;74.20;;;;;;4991933;28;20021;-70
2023/02/27 02:07:17;;;;;;;0.50;0.30;;;15.70;74.20;;;;;;4991872;28;20093;-70
2023/02/27 02:09:47;;;;;;;1.95;0.30;;;15.70;74.30;;;;;;4992146;28;20038;-70
2023/02/27 02:12:13;;;;;;;0.93;0.40;;;15.70;74.30;;;;;;4959806;28;20437;-70
2023/02/27 02:14:39;;;;;;;0.57;0.38;;;15.70;74.40;;;;;;4991800;28;20081;-70
2023/02/27 02:17:28;;;;;;;0.25;0.20;;;15.70;74.30;;;;;;4993312;28;20421;-70
2023/02/27 02:20:27;;;;;;;1.08;0.43;;;15.70;74.20;;;;;;4991833;28;20113;-70
2023/02/27 02:22:58;;;;;;;0.68;0.20;;;15.60;74.30;;;;;;4993033;28;20500;-70
2023/02/27 02:25:46;;;;;;;0.57;0.20;;;15.60;74.30;;;;;;4992858;28;20051;-70
2023/02/27 02:28:28;;;;;;;0.10;0.10;;;15.60;74.30;;;;;;4992984;28;20073;-70
2023/02/27 02:31:31;;;;;;;0.57;0.30;;;15.60;74.40;;;;;;4991715;28;20038;-70
2023/02/27 02:34:18;;;;;;;2.15;0.25;;;15.60;74.50;;;;;;4993135;28;20058;-70
2023/02/27 02:37:19;;;;;;;0.77;0.22;;;15.60;74.50;;;;;;4993046;28;20031;-70
2023/02/27 02:40:06;;;;;;;1.00;0.30;;;15.60;74.50;;;;;;4995494;28;20113;-70
2023/02/27 02:42:36;;;;;;;0.43;0.20;;;15.60;74.50;;;;;;4996509;28;20416;-70
2023/02/27 02:45:10;;;;;;;0.45;0.30;;;15.60;74.70;;;;;;4995380;28;20022;-70
2023/02/27 02:47:58;;;;;;;1.00;0.47;;;15.60;74.70;;;;;;4996296;28;20030;-70
2023/02/27 02:50:33;;;;;;;0.50;0.28;;;15.60;74.90;;;;;;4994737;28;20461;-70
2023/02/27 02:53:20;;;;;;;0.52;0.20;;;15.60;74.80;;;;;;4979861;28;20022;-70
2023/02/27 02:55:49;;;;;;;0.93;0.50;;;15.60;74.90;;;;;;4995143;28;20109;-69
2023/02/27 02:58:33;;;;;;;0.90;0.50;;;15.60;74.90;;;;;;4979012;28;20063;-70
2023/02/27 03:01:02;;;;;;;0.60;0.20;;;15.60;74.80;;;;;;4979580;28;20034;-69
2023/02/27 03:03:32;;;;;;;1.20;0.30;;;15.50;74.80;;;;;;4995930;28;20022;-69
2023/02/27 03:06:09;;;;;;;0.80;0.30;;;15.50;75.00;;;;;;4994759;28;20101;-69
2023/02/27 03:08:53;;;;;;;1.48;0.38;;;15.60;75.00;;;;;;4994567;28;20053;-70
2023/02/27 03:11:21;;;;;;;0.82;0.30;;;15.50;74.80;;;;;;4994692;28;20023;-70
2023/02/27 03:13:50;;;;;;;0.90;0.25;;;15.50;74.90;;;;;;4983627;28;20019;-70
2023/02/27 03:16:22;;;;;;;4.13;0.30;;;15.50;74.80;;;;;;4975135;28;20043;-70
2023/02/27 03:18:59;;;;;;;1.10;0.50;;;15.50;75.10;;;;;;4975004;28;20023;-70
2023/02/27 03:21:35;;;;;;;1.40;0.43;;;15.50;75.00;;;;;;4974835;28;20043;-69
2023/02/27 03:24:02;;;;;;;1.83;0.40;;;15.50;74.90;;;;;;4975055;28;20023;-70
2023/02/27 03:26:34;;;;;;;0.75;0.20;;;15.50;74.80;;;;;;4975050;28;20023;-69
2023/02/27 03:29:06;;;;;;;1.73;0.40;;;15.60;75.00;;;;;;4975271;28;20049;-69
2023/02/27 03:31:53;;;;;;;0.55;0.28;;;15.50;74.70;;;;;;4975020;28;20030;-70
2023/02/27 03:34:34;;;;;;;0.75;0.20;;;15.50;75.00;;;;;;4974630;28;20465;-69
2023/02/27 03:37:28;;;;;;;2.47;0.43;;;15.50;74.80;;;;;;4976134;28;20031;-70
2023/02/27 03:40:00;;;;;;;0.82;0.17;;;15.50;74.80;;;;;;4983939;28;20109;-69
2023/02/27 03:42:39;;;;;;;0.40;0.25;;;15.50;74.80;;;;;;4978272;28;20029;-69
2023/02/27 03:45:15;;;;;;;1.30;0.25;;;15.50;74.90;;;;;;4979128;28;20027;-70
2023/02/27 03:47:40;;;;;;;0.70;0.30;;;15.50;74.90;;;;;;4978881;28;20420;-70
2023/02/27 03:50:07;;;;;;;0.75;0.28;;;15.50;74.90;;;;;;4993706;28;20026;-70
2023/02/27 03:52:32;;;;;;;1.35;0.30;;;15.50;74.90;;;;;;4977654;28;20397;-69
2023/02/27 03:54:59;;;;;;;0.25;0.20;;;15.40;75.20;;;;;;4977644;28;20030;-70
2023/02/27 03:57:25;;;;;;;1.20;0.35;;;15.40;75.20;;;;;;4993491;28;20440;-69
2023/02/27 03:59:52;;;;;;;0.85;0.40;;;15.40;75.00;;;;;;4976651;28;20041;-70
2023/02/27 04:02:17;;;;;;;0.65;0.40;;;15.40;75.00;;;;;;4994536;28;20077;-70
2023/02/27 04:04:43;;;;;;;0.63;0.40;;;15.40;75.30;;;;;;4977569;28;20026;-70
2023/02/27 04:07:35;;;;;;;2.85;0.43;;;15.40;75.20;;;;;;4994994;28;20025;-69
2023/02/27 04:10:27;;;;;;;1.13;0.30;;;15.40;75.30;;;;;;4984398;28;20038;-69
2023/02/27 04:13:05;;;;;;;0.95;0.40;;;15.40;75.10;;;;;;4994523;28;20049;-70
2023/02/27 04:16:10;;;;;;;0.52;0.20;;;15.40;75.20;;;;;;4994646;28;20030;-70
2023/02/27 04:18:50;;;;;;;2.95;0.25;;;15.40;75.30;;;;;;4994913;28;20062;-70
2023/02/27 04:21:19;;;;;;;0.50;0.32;;;15.40;75.20;;;;;;4993241;28;20089;-70
2023/02/27 04:24:17;;;;;;;0.35;0.20;;;15.40;75.20;;;;;;4994683;28;20049;-69
2023/02/27 04:26:48;;;;;;;1.42;0.40;;;15.40;75.50;;;;;;4993175;28;20031;-70
2023/02/27 04:29:18;;;;;;;0.47;0.28;;;15.40;75.20;;;;;;4993426;28;20396;-69
2023/02/27 04:32:01;;;;;;;0.82;0.35;;;15.30;75.20;;;;;;4993094;28;20054;-70
2023/02/27 04:34:35;;;;;;;1.17;0.30;;;15.40;75.20;;;;;;4992989;28;20030;-69
2023/02/27 04:37:05;;;;;;;1.73;0.55;;;15.40;75.30;;;;;;4993233;28;20026;-69
2023/02/27 04:39:36;;;;;;;0.55;0.32;;;15.40;75.20;;;;;;4994347;28;20034;-69
2023/02/27 04:42:09;;;;;;;2.00;0.30;;;15.40;75.20;;;;;;4993149;28;20064;-69
2023/02/27 04:44:35;;;;;;;1.67;0.30;;;15.30;75.20;;;;;;4992949;28;20018;-69
2023/02/27 04:47:00;;;;;;;1.88;0.50;;;15.30;75.20;;;;;;4992910;28;20034;-70
2023/02/27 04:49:39;;;;;;;0.40;0.25;;;15.40;76.30;;;;;;4976590;28;20057;-69
2023/02/27 04:52:13;;;;;;;0.90;0.30;;;15.30;75.10;;;;;;4992906;28;20026;-69
2023/02/27 04:54:57;;;;;;;1.63;0.25;;;15.30;75.20;;;;;;4992775;28;20026;-70
2023/02/27 04:57:33;;;;;;;1.90;0.45;;;15.30;75.30;;;;;;4994179;28;20050;-70
2023/02/27 05:00:00;;;;;;;1.90;0.20;;;15.30;75.20;;;;;;4992297;28;20022;-70
2023/02/27 05:02:37;;;;;;;0.30;0.30;;;15.30;75.30;;;;;;4992185;28;20437;-70
2023/02/27 05:05:05;;;;;;;3.25;0.38;;;15.30;75.40;;;;;;4993089;28;20048;-70
2023/02/27 05:07:40;;;;;;;0.80;0.30;;;15.30;75.40;;;;;;4992642;28;20488;-70
2023/02/27 05:10:09;;;;;;;1.30;0.47;;;15.30;75.50;;;;;;4992632;28;20145;-70
2023/02/27 05:12:38;;;;;;;9.38;0.52;;;15.30;75.40;;;;;;4990987;28;20022;-70
2023/02/27 05:15:19;;;;;;;1.30;0.40;;;15.30;75.50;;;;;;4957131;28;20075;-70
2023/02/27 05:17:58;;;;;;;2.75;0.52;;;15.30;75.40;;;;;;4974459;28;20046;-70
2023/02/27 05:20:24;;;;;;;1.50;0.60;;;15.30;75.40;;;;;;4972891;28;20069;-70
2023/02/27 05:23:12;;;;;;;0.30;0.17;;;15.30;75.40;;;;;;4956874;28;20051;-70
2023/02/27 05:26:00;;;;;;;0.30;0.20;;;15.20;75.30;;;;;;4959292;28;20077;-70
2023/02/27 05:28:45;;;;;;;0.65;0.30;;;15.30;75.30;;;;;;4957529;28;20055;-70
2023/02/27 05:31:22;;;;;;;1.15;0.43;;;15.30;75.20;;;;;;4957717;28;20415;-70
2023/02/27 05:34:02;;;;;;;2.85;0.63;;;15.30;75.30;;;;;;4957651;28;20074;-70
2023/02/27 05:36:35;;;;;;;0.50;0.30;;;15.30;75.30;;;;;;4958582;28;20018;-69
2023/02/27 05:39:05;;;;;;;2.35;0.40;;;15.30;75.30;;;;;;4972991;28;20412;-69
2023/02/27 05:41:46;;;;;;;0.63;0.30;;;15.20;75.20;;;;;;4957047;28;20015;-70
2023/02/27 05:44:14;;;;;;;0.80;0.30;;;15.20;76.20;;;;;;4957903;28;20019;-70
2023/02/27 05:46:57;;;;;;;1.08;0.40;;;15.20;75.30;;;;;;4972681;28;20023;-70
2023/02/27 05:49:44;;;;;;;1.08;0.38;;;15.20;75.30;;;;;;4957416;28;20093;-69
2023/02/27 05:52:13;;;;;;;0.47;0.30;;;15.20;75.50;;;;;;4972772;28;20047;-70
2023/02/27 05:54:48;;;;;;;1.00;0.38;;;15.20;75.30;;;;;;4956877;28;20065;-70
2023/02/27 05:57:16;;;;;;;0.47;0.30;;;15.20;75.20;;;;;;4957281;28;20030;-70
2023/02/27 06:00:06;;;;;;;0.60;0.30;;;15.20;75.20;;;;;;4958710;28;20373;-70
2023/02/27 06:02:31;;;;;;;1.35;0.40;;;15.20;75.30;;;;;;4995310;28;20041;-70
2023/02/27 06:04:57;;;;;;;0.98;0.28;;;15.20;75.40;;;;;;4992310;28;20030;-70
2023/02/27 06:07:22;;;;;;;0.30;0.30;;;15.10;75.30;;;;;;4992084;28;20018;-70
2023/02/27 06:09:48;;;;;;;3.22;1.08;;;15.20;75.40;;;;;;4992041;28;20503;-70
2023/02/27 06:12:14;;;;;;;1.45;0.30;;;15.20;75.30;;;;;;4991136;28;20026;-69
2023/02/27 06:14:39;;;;;;;1.40;0.50;;;15.20;75.50;;;;;;4994828;28;20070;-69
2023/02/27 06:17:05;;;;;;;1.00;0.22;;;15.20;75.50;;;;;;4996512;28;20027;-69
2023/02/27 06:19:31;;;;;;;0.22;0.20;;;15.20;75.60;;;;;;4996152;28;20054;-70
2023/02/27 06:21:56;;;;;;;0.30;0.10;;;15.10;75.50;;;;;;4996115;28;20501;-69
2023/02/27 06:24:22;;;;;;;1.25;0.20;;;15.20;75.70;;;;;;4996438;28;20033;-69
2023/02/27 06:26:47;;;;;;;2.42;0.32;;;15.20;75.60;;;;;;4995999;28;20033;-70
2023/02/27 06:29:13;;;;;;;1.50;0.20;;;15.20;75.60;;;;;;4996174;28;20492;-70
2023/02/27 06:31:39;;;;;;;3.22;0.32;;;15.20;75.60;;;;;;4995943;28;20027;-70
2023/02/27 06:34:04;;;;;;;0.55;0.38;;;15.20;75.90;;;;;;4996136;28;20113;-69
2023/02/27 06:36:30;;;;;;;0.80;0.38;;;15.20;75.60;;;;;;4996165;28;20026;-69
2023/02/27 06:38:56;;;;;;;0.70;0.43;;;15.20;74.60;;;;;;4995723;28;20058;-69
2023/02/27 06:41:22;;;;;;;0.75;0.35;;;15.20;73.90;;;;;;4995851;28;20305;-69
2023/02/27 06:43:48;;;;;;;1.75;0.40;;;15.20;73.30;;;;;;4994896;28;20026;-69
2023/02/27 06:46:13;;;;;;;1.23;0.45;;;15.30;73.00;;;;;;4995976;28;20090;-70
2023/02/27 06:48:39;;;;;;;8.25;0.50;;;15.30;72.70;;;;;;4994499;28;20022;-69
2023/02/27 06:51:05;;;;;;;0.95;0.50;;;15.30;72.30;;;;;;4995855;28;20493;-69
2023/02/27 06:53:30;;;;;;;1.38;0.35;;;15.30;72.30;;;;;;4995604;28;20625;-69
2023/02/27 06:55:56;;;;;;;0.77;0.20;;;15.40;72.10;;;;;;4994502;28;20022;-70
2023/02/27 06:58:23;;;;;;;1.30;0.52;;;15.40;72.00;;;;;;4994913;28;20481;-70
2023/02/27 07:00:49;;;;;;;0.90;0.40;;;15.40;71.90;;;;;;4994060;28;20026;-71
2023/02/27 07:03:15;;;;;;;1.73;0.40;;;15.40;71.60;;;;;;4995556;28;20037;-71
2023/02/27 07:05:40;;;;;;;0.75;0.60;;;15.40;71.40;;;;;;4994030;28;20550;-68
2023/02/27 07:08:06;;;;;;;0.70;0.30;;;15.40;71.10;;;;;;4994452;28;20022;-69
2023/02/27 07:10:32;;;;;;;3.33;0.50;;;15.50;71.10;;;;;;4994177;28;20515;-68
2023/02/27 07:12:57;;;;;;;3.63;0.38;;;15.50;71.10;;;;;;4995412;28;20058;-68
2023/02/27 07:15:23;;;;;;;0.82;0.30;;;15.50;71.00;;;;;;4995229;28;20022;-68
2023/02/27 07:17:49;;;;;;;4.95;0.75;;;15.50;71.20;;;;;;4995327;28;20030;-68
2023/02/27 07:20:14;;;;;;;1.23;0.55;;;15.50;71.10;;;;;;4995349;28;20440;-68
2023/02/27 07:22:40;;;;;;;1.40;0.63;;;15.50;71.20;;;;;;4994770;28;20077;-68
2023/02/27 07:25:06;;;;;;;0.63;0.38;;;15.50;71.30;;;;;;4993606;28;20384;-68
2023/02/27 07:27:32;;;;;;;0.77;0.50;;;15.60;71.30;;;;;;4994893;28;20034;-68
2023/02/27 07:29:57;;;;;;;0.95;0.38;;;15.60;71.30;;;;;;4995129;28;20026;-68
2023/02/27 07:32:23;;;;;;;1.38;0.40;;;15.60;71.40;;;;;;4995004;28;20077;-68
2023/02/27 07:34:49;;;;;;;2.75;0.52;;;15.60;71.40;;;;;;4994883;28;20027;-68
2023/02/27 07:37:14;;;;;;;1.80;0.70;;;15.60;71.50;;;;;;4995089;28;20060;-68
2023/02/27 07:39:40;;;;;;;3.63;0.73;;;15.60;71.50;;;;;;4993351;28;20080;-68
2023/02/27 07:42:06;;;;;;;5.50;0.68;;;15.70;71.60;;;;;;4993527;28;20029;-69
2023/02/27 07:44:31;;;;;;;50.60;6.70;;;15.70;71.80;;;;;;4994767;28;20062;-68
2023/02/27 07:46:57;;;;;;;35.72;6.63;;;15.70;72.50;;;;;;4994515;28;20033;-68
2023/02/27 07:49:23;;;;;;;35.30;5.72;;;15.70;73.90;;;;;;4993362;28;20480;-68
2023/02/27 07:51:48;;;;;;;26.00;4.78;;;15.80;74.60;;;;;;4993846;28;20512;-68
2023/02/27 07:54:14;;;;;;;27.80;4.55;;;15.80;75.00;;;;;;4993089;28;20098;-68
2023/02/27 07:56:40;;;;;;;23.70;4.78;;;15.80;75.30;;;;;;4993480;28;20432;-68
2023/02/27 07:59:05;;;;;;;23.60;3.97;;;15.80;75.00;;;;;;4992553;28;20386;-68
2023/02/27 08:01:31;;;;;;;16.27;3.72;;;15.90;75.00;;;;;;4993432;28;20037;-68
2023/02/27 08:03:56;;;;;;;23.92;4.05;;;15.80;74.80;;;;;;4993590;28;20026;-68
2023/02/27 08:06:22;;;;;;;16.80;3.30;;;15.80;74.70;;;;;;4993192;28;20033;-68
2023/02/27 08:08:48;;;;;;;16.52;3.63;;;15.90;74.80;;;;;;4993372;28;20433;-68
2023/02/27 08:11:14;;;;;;;20.90;3.35;;;15.90;74.70;;;;;;4992545;28;20023;-68
2023/02/27 08:13:40;;;;;;;15.57;3.70;;;15.90;74.70;;;;;;4993063;28;20094;-68
2023/02/27 08:16:06;;;;;;;18.08;3.67;;;15.90;74.70;;;;;;4994114;28;20029;-68
2023/02/27 08:18:32;;;;;;;11.40;3.25;;;15.90;74.60;;;;;;4992893;28;20370;-68
2023/02/27 08:20:57;;;;;;;17.92;2.90;;;15.90;74.50;;;;;;4992702;28;20033;-67
2023/02/27 08:23:23;;;;;;;17.25;3.67;;;15.90;74.50;;;;;;4992770;28;20099;-68
2023/02/27 08:25:49;;;;;;;16.17;3.00;;;15.90;74.50;;;;;;4993827;28;20053;-68
2023/02/27 08:28:14;;;;;;;13.82;2.95;;;15.90;74.50;;;;;;4993856;28;20105;-68
2023/02/27 08:30:40;;;;;;;11.90;2.80;;;16.00;74.50;;;;;;4993980;28;20042;-68
2023/02/27 08:33:06;;;;;;;12.85;2.88;;;16.00;74.50;;;;;;4994299;28;20414;-68
2023/02/27 08:35:31;;;;;;;11.48;2.63;;;16.00;74.40;;;;;;4993724;28;20554;-68
2023/02/27 08:37:57;;;;;;;7.55;2.38;;;16.00;74.40;;;;;;4992902;28;20048;-68
2023/02/27 08:40:23;;;;;;;10.68;2.60;;;16.00;74.30;;;;;;4992633;28;20104;-68
2023/02/27 08:42:50;;;;;;;14.13;2.40;;;16.00;74.40;;;;;;4993600;28;20431;-68
2023/02/27 08:45:16;;;;;;;10.23;3.05;;;16.00;74.30;;;;;;4992649;28;20026;-68
2023/02/27 08:47:44;;;;;;;7.90;2.25;;;16.00;74.30;;;;;;4993419;28;20021;-67
2023/02/27 08:50:11;;;;;;;11.80;2.67;;;16.00;74.30;;;;;;4992451;28;20508;-68
2023/02/27 08:52:37;;;;;;;8.02;2.28;;;16.00;74.30;;;;;;4993283;28;20019;-68
2023/02/27 08:55:02;;;;;;;10.85;2.30;;;16.00;74.20;;;;;;4993639;28;20036;-68
2023/02/27 08:57:28;;;;;;;10.48;2.22;;;16.00;74.20;;;;;;4993606;28;20583;-68
2023/02/27 08:59:54;;;;;;;5.63;1.85;;;16.00;74.20;;;;;;4992999;28;20034;-68
2023/02/27 09:02:22;;;;;;;4.47;2.13;;;16.00;74.30;;;;;;4993255;28;20069;-68
2023/02/27 09:04:48;;;;;;;5.53;2.33;;;16.00;74.30;;;;;;4993150;28;20105;-68
2023/02/27 09:07:13;;;;;;;9.63;2.03;;;16.00;74.30;;;;;;4993194;28;20106;-68
2023/02/27 09:09:39;;;;;;;7.10;2.20;;;16.00;74.30;;;;;;4993309;28;20125;-68
2023/02/27 09:12:05;;;;;;;6.70;1.92;;;16.10;74.40;;;;;;4991896;28;20062;-68
2023/02/27 09:14:30;;;;;;;7.15;2.20;;;16.10;74.40;;;;;;4993203;28;20109;-68
2023/02/27 09:16:57;;;;;;;4.63;2.10;;;16.10;74.40;;;;;;4993186;28;20030;-68
2023/02/27 09:19:22;;;;;;;5.22;1.75;;;16.10;74.40;;;;;;4993106;28;20396;-68
2023/02/27 09:21:48;;;;;;;5.78;1.98;;;16.10;74.50;;;;;;4992671;28;20047;-68
2023/02/27 09:24:14;;;;;;;5.13;2.22;;;16.10;74.50;;;;;;4992998;28;20097;-68
2023/02/27 09:26:39;;;;;;;4.43;1.63;;;16.10;74.50;;;;;;4992989;28;20378;-68
2023/02/27 09:29:05;;;;;;;5.45;1.70;;;16.10;74.50;;;;;;4993228;28;20566;-68
2023/02/27 09:31:30;;;;;;;7.30;1.80;;;16.10;74.50;;;;;;4993006;28;20034;-68
2023/02/27 09:33:56;;;;;;;5.57;1.65;;;16.10;74.50;;;;;;4992868;28;20489;-68
2023/02/27 09:36:23;;;;;;;5.47;1.70;;;16.10;74.40;;;;;;4991621;28;20027;-68
2023/02/27 09:38:48;;;;;;;5.45;1.70;;;16.10;74.40;;;;;;4992698;28;20030;-68
2023/02/27 09:41:30;;;;;;;7.10;1.55;;;16.10;74.50;;;;;;4993050;28;20505;-68
2023/02/27 09:43:55;;;;;;;2.80;1.27;;;16.10;74.50;;;;;;4991809;28;20054;-68
2023/02/27 09:46:22;;;;;;;6.68;2.00;;;16.10;74.40;;;;;;4991877;28;20050;-68
2023/02/27 09:48:57;;;;;;;6.82;1.52;;;16.10;74.50;;;;;;4994348;28;20101;-68
2023/02/27 09:51:23;;;;;;;7.78;2.03;;;16.10;74.50;;;;;;4995464;28;20027;-68
2023/02/27 09:53:51;;;;;;;6.32;1.75;;;16.10;74.50;;;;;;4995623;28;20113;-68
2023/02/27 09:56:29;;;;;;;5.63;1.30;;;16.10;74.40;;;;;;4995673;28;20018;-68
2023/02/27 09:59:01;;;;;;;3.00;1.40;;;16.10;74.50;;;;;;4995375;28;20026;-68
2023/02/27 10:01:38;;;;;;;5.55;1.45;;;16.10;74.40;;;;;;4996814;28;20083;-68
2023/02/27 10:04:24;;;;;;;3.35;1.50;;;16.10;74.40;;;;;;4995158;28;20027;-68
2023/02/27 10:06:56;;;;;;;3.78;1.52;;;16.10;74.40;;;;;;4995376;28;20015;-67
2023/02/27 10:09:53;;;;;;;4.45;1.60;;;16.10;74.40;;;;;;4995542;28;20018;-68
2023/02/27 10:12:37;;;;;;;3.47;1.35;;;16.10;74.40;;;;;;4996555;28;20054;-68
2023/02/27 10:15:12;;;;;;;2.53;1.38;;;16.10;74.40;;;;;;4976934;28;20396;-68
2023/02/27 10:17:39;;;;;;;3.10;1.30;;;16.20;74.40;;;;;;4977026;28;20031;-68
2023/02/27 10:20:13;;;;;;;4.30;1.30;;;16.10;74.30;;;;;;4991569;28;20034;-68
2023/02/27 10:22:41;;;;;;;3.42;1.30;;;16.10;74.30;;;;;;4991659;28;20616;-68
2023/02/27 10:25:16;;;;;;;3.00;1.27;;;16.10;74.30;;;;;;4991859;28;20109;-68
2023/02/27 10:27:47;;;;;;;4.35;1.27;;;16.20;74.30;;;;;;4991083;28;20058;-67
2023/02/27 10:30:23;;;;;;;3.58;1.50;;;16.20;74.20;;;;;;4991414;28;20432;-67
2023/02/27 10:33:03;;;;;;;2.63;1.23;;;16.20;74.20;;;;;;4976407;28;20027;-68
2023/02/27 10:35:34;;;;;;;4.50;1.20;;;16.20;74.20;;;;;;4989957;28;20074;-68
2023/02/27 10:38:03;;;;;;;2.97;1.20;;;16.20;74.20;;;;;;4991559;28;20022;-68
2023/02/27 10:40:29;;;;;;;4.28;1.23;;;16.10;74.20;;;;;;4991585;28;20029;-68
2023/02/27 10:42:55;;;;;;;4.35;1.35;;;16.20;74.20;;;;;;4991483;28;20097;-67
2023/02/27 10:45:20;;;;;;;4.43;1.45;;;16.20;74.10;;;;;;4991303;28;20103;-67
2023/02/27 10:47:46;;;;;;;4.57;1.55;;;16.20;74.10;;;;;;4991314;28;20102;-67
2023/02/27 10:50:21;;;;;;;2.28;1.20;;;16.20;74.10;;;;;;4976325;28;20035;-68
2023/02/27 10:52:51;;;;;;;2.70;1.10;;;16.20;74.10;;;;;;4976149;28;20027;-68
2023/02/27 10:55:27;;;;;;;2.38;1.13;;;16.20;74.10;;;;;;4991261;28;20030;-68
2023/02/27 10:57:54;;;;;;;2.70;1.05;;;16.20;74.00;;;;;;4976128;28;20110;-68
2023/02/27 11:00:41;;;;;;;2.53;1.17;;;16.10;74.00;;;;;;4993557;28;20026;-68
2023/02/27 11:03:22;;;;;;;4.32;1.05;;;16.20;74.00;;;;;;4995315;28;20022;-67
2023/02/27 11:05:55;;;;;;;1.38;1.00;;;16.20;74.00;;;;;;4979215;28;20057;-68
2023/02/27 11:08:25;;;;;;;;;;;16.20;74.00;;;;;;4994889;28;20022;-67
2023/02/27 11:10:53;;;;;;;2.50;0.80;;;16.20;73.90;;;;;;4995290;28;20003;-68
2023/02/27 11:13:24;;;;;;;1.60;0.90;;;16.20;74.00;;;;;;4987862;28;20023;-68
2023/02/27 11:16:07;;;;;;;1.85;0.75;;;16.10;74.00;;;;;;4974734;28;20022;-68
2023/02/27 11:18:34;;;;;;;2.40;0.90;;;16.20;73.90;;;;;;4974503;28;20049;-68
2023/02/27 11:21:27;;;;;;;3.40;1.15;;;16.20;73.90;;;;;;4974419;28;20451;-67
2023/02/27 11:24:06;;;;;;;2.70;1.13;;;16.10;73.80;;;;;;4974487;28;20027;-67
2023/02/27 11:26:32;;;;;;;1.73;0.70;;;16.20;73.90;;;;;;4974560;28;20030;-67
2023/02/27 11:29:17;;;;;;;1.88;0.70;;;16.20;73.80;;;;;;4975719;28;20034;-68
2023/02/27 11:31:48;;;;;;;3.78;0.93;;;16.20;73.80;;;;;;4974338;28;20031;-67
2023/02/27 11:34:23;;;;;;;0.95;0.70;;;16.10;73.80;;;;;;4974414;28;20034;-68
2023/02/27 11:36:50;;;;;;;2.38;0.80;;;16.20;73.80;;;;;;4974305;28;20023;-67
2023/02/27 11:39:28;;;;;;;3.65;0.90;;;16.20;73.80;;;;;;4974220;28;20031;-68
2023/02/27 11:41:54;;;;;;;1.60;0.75;;;16.10;73.70;;;;;;4974258;28;20517;-67
2023/02/27 11:44:23;;;;;;;2.13;0.93;;;16.20;73.80;;;;;;4974408;28;20014;-67
2023/02/27 11:46:49;;;;;;;2.10;0.90;;;16.10;73.70;;;;;;4973948;28;20019;-68
2023/02/27 11:49:38;;;;;;;1.55;0.70;;;16.10;73.70;;;;;;4975294;28;20038;-68
2023/02/27 11:52:09;;;;;;;2.25;1.10;;;16.10;73.70;;;;;;4974799;28;20033;-67
2023/02/27 11:54:41;;;;;;;3.17;0.90;;;16.10;73.70;;;;;;4975222;28;20034;-68
2023/02/27 11:57:27;;;;;;;1.70;0.80;;;16.10;73.70;;;;;;4973982;28;20051;-67
2023/02/27 12:00:05;;;;;;;1.45;0.70;;;16.20;73.70;;;;;;4976871;28;20031;-68
2023/02/27 12:02:59;;;;;;;1.92;0.63;;;16.10;73.60;;;;;;4993671;28;20582;-67
2023/02/27 12:05:28;;;;;;;0.90;0.52;;;16.10;73.60;;;;;;4993482;28;20050;-68
2023/02/27 12:08:00;;;;;;;1.98;0.88;;;16.10;73.60;;;;;;4993080;28;20511;-67
2023/02/27 12:10:45;;;;;;;;;;;16.10;73.50;;;;;;4993408;28;20026;-67
2023/02/27 12:13:20;;;;;;;1.13;0.60;;;16.10;73.50;;;;;;4993802;28;19906;-68
2023/02/27 12:16:02;;;;;;;2.80;0.98;;;16.10;73.50;;;;;;4992949;28;20546;-67
2023/02/27 12:18:37;;;;;;;2.50;0.80;;;16.10;73.50;;;;;;4993231;28;20041;-67
2023/02/27 12:21:10;;;;;;;1.65;0.68;;;16.10;73.50;;;;;;4992781;28;20027;-68
2023/02/27 12:23:42;;;;;;;2.08;0.88;;;16.10;73.50;;;;;;4993289;28;20065;-67
2023/02/27 12:26:21;;;;;;;1.53;0.70;;;16.10;73.50;;;;;;4992591;28;20023;-67
2023/02/27 12:29:05;;;;;;;1.33;0.50;;;16.10;73.50;;;;;;4992631;28;20014;-67
2023/02/27 12:31:33;;;;;;;0.80;0.40;;;16.20;73.50;;;;;;4994030;28;20022;-67
2023/02/27 12:34:34;;;;;;;1.00;0.52;;;16.20;73.50;;;;;;4993925;28;20054;-68
2023/02/27 12:37:14;;;;;;;1.27;0.55;;;16.10;73.50;;;;;;5011184;28;20030;-67
2023/02/27 12:39:41;;;;;;;1.80;0.63;;;16.10;73.50;;;;;;5009989;28;20029;-68
2023/02/27 12:42:25;;;;;;;1.63;0.55;;;16.10;73.50;;;;;;5027437;28;20052;-68
2023/02/27 12:44:50;;;;;;;2.45;0.80;;;16.20;73.50;;;;;;5011041;28;20424;-67
2023/02/27 12:47:40;;;;;;;1.55;0.60;;;16.10;73.40;;;;;;5011067;28;20033;-67
2023/02/27 12:50:11;;;;;;;1.98;0.68;;;16.20;73.50;;;;;;5009865;28;20037;-67
2023/02/27 12:52:46;;;;;;;3.53;0.80;;;16.20;73.40;;;;;;5027282;28;20496;-67
2023/02/27 12:55:16;;;;;;;1.50;0.50;;;16.10;73.30;;;;;;5026623;28;20054;-67
2023/02/27 12:58:13;;;;;;;0.73;0.52;;;16.10;73.30;;;;;;5027036;28;20053;-68
2023/02/27 13:00:45;;;;;;;1.60;0.60;;;16.20;73.30;;;;;;5010845;28;20032;-68
2023/02/27 13:03:26;;;;;;;0.90;0.80;;;16.10;73.30;;;;;;4994557;28;20026;-67
2023/02/27 13:06:07;;;;;;;3.90;0.63;;;16.10;73.30;;;;;;4995003;28;20041;-67